• Join FlightAware (Why Join?)
  • Login
  • US Flag 
05:18AM EDT


 

Airport Tracker/Info


-or-


 

Live Flight TrackerFlight Track Log ✈ N319EE ✈ 10-Oct-2013 ✈ KBGM - KROC

Flight Track Log - Related Links

Times and Time Zones

All times are in EDT time to prevent confusion due to time zone crossing. See the N319EE flight status page for this flight to view local times or setup timezone preferences in your user account.

Time Position Orientation Groundspeed Altitude Reporting Facility
EDT Latitude Longitude Course Direction KTS MPH feet Rate Location/Type
12:32PM 42.2539 -75.9956 306° West 214 246 5,000  Level New York Center
12:33PM 42.2847 -76.0542 305° West 198 228 7,200 2,100 Climbing New York Center
12:34PM 42.3194 -76.1131 309° West 192 221 9,200 1,380 Climbing New York Center
12:35PM 42.3519 -76.1803 303° West 192 221 10,000 360 Climbing New York Center
12:36PM 42.3939 -76.2622 305° West 224 258 10,000  Level New York Center
12:37PM 42.4066 -76.3441 306° West  Level FlightAware Approximate
12:37PM 42.4419 -76.3478 307° West 265 305 10,000  Level New York Center
12:38PM 42.4858 -76.4331 305° West 283 326 10,000  Level New York Center
12:39PM 42.5317 -76.5186 306° West 283 326 10,000  Level New York Center
12:40PM 42.5753 -76.6042 305° West 283 326 10,000  Level New York Center
12:42PM 42.6514 -76.7506 305° West 274 315 10,000 -120 Level Cleveland Center
12:43PM 42.7047 -76.8536 305° West 278 320 9,800 -600 Descending Cleveland Center
12:44PM 42.7408 -76.9203 306° West 282 325 9,000 -1,020 Descending Cleveland Center
12:44PM 42.7514 -76.9411 305° West 283 326 8,800 -900 Descending Cleveland Center
12:45PM 42.7903 -77.0075 309° West 291 335 8,100 -1,020 Descending Cleveland Center
12:45PM 42.8011 -77.0269 307° West 289 333 7,800 -1,080 Descending Cleveland Center
12:46PM 42.8403 -77.0922 309° West 290 334 6,900 -1,080 Descending Cleveland Center
12:46PM 42.8492 -77.1106 303° West 284 327 6,700 -1,140 Descending Cleveland Center
12:47PM 42.8878 -77.1764 309° West 282 325 5,800 -1,080 Descending Cleveland Center
12:47PM 42.8958 -77.1947 301° West 281 323 5,600 -1,320 Descending Cleveland Center
12:48PM 42.9439 -77.2775 308° West 282 325 4,500 -1,200 Descending Cleveland Center
12:48PM 42.9531 -77.2953 305° West 282 325 4,400 -600 Descending Cleveland Center
12:49PM 42.9914 -77.3619 308° West 282 325 3,900 -600 Descending Cleveland Center
12:49PM 43.0003 -77.3783 307° West 280 322 3,800 -600 Descending Cleveland Center
12:50PM 43.0372 -77.4433 308° West 275 316 3,300 -600 Descending Cleveland Center
12:50PM 43.0456 -77.4592 306° West 274 315 3,200 -900 Descending Cleveland Center
12:51PM 43.0836 -77.5219 310° West 270 311 2,400 -1,080 Descending Cleveland Center
12:51PM 43.0914 -77.5386 303° West 269 310 2,100 -600 Descending Cleveland Center
12:52PM 43.1244 -77.5936 309° West 253 291 1,800 -600 Descending Cleveland Center
12:52PM 43.1269 -77.6036 289° West 231 266 1,500 -1,020 Descending Cleveland Center
12:53PM 43.1253 -77.6461 267° West 147 169 800 -900 Descending Cleveland Center
12:53PM 43.1217 -77.6558 243° Southwest 171 197 600 -600 Descending Cleveland Center